sensor_id;sensor_type;location;lat;lon;timestamp;temperature;humidity
52669;DHT22;59898;52.786;6.892;2022-09-09T00:00:37;15.60;99.90
52669;DHT22;59898;52.786;6.892;2022-09-09T00:04:09;15.60;99.90
52669;DHT22;59898;52.786;6.892;2022-09-09T00:07:37;15.60;99.90
52669;DHT22;59898;52.786;6.892;2022-09-09T00:11:03;15.50;99.90
52669;DHT22;59898;52.786;6.892;2022-09-09T00:22:18;15.50;99.90
52669;DHT22;59898;52.786;6.892;2022-09-09T00:29:51;15.40;99.90
52669;DHT22;59898;52.786;6.892;2022-09-09T00:33:12;15.40;99.90
52669;DHT22;59898;52.786;6.892;2022-09-09T00:36:35;15.40;99.90
52669;DHT22;59898;52.786;6.892;2022-09-09T00:40:00;15.40;99.90
52669;DHT22;59898;52.786;6.892;2022-09-09T00:50:59;15.40;99.90
52669;DHT22;59898;52.786;6.892;2022-09-09T00:57:52;15.30;99.90
52669;DHT22;59898;52.786;6.892;2022-09-09T01:01:13;15.30;99.90
52669;DHT22;59898;52.786;6.892;2022-09-09T01:04:36;15.30;99.90
52669;DHT22;59898;52.786;6.892;2022-09-09T01:07:58;15.20;99.90
52669;DHT22;59898;52.786;6.892;2022-09-09T01:11:26;15.20;99.90
52669;DHT22;59898;52.786;6.892;2022-09-09T01:14:52;15.20;99.90
52669;DHT22;59898;52.786;6.892;2022-09-09T01:18:17;15.10;99.90
52669;DHT22;59898;52.786;6.892;2022-09-09T01:21:59;15.20;99.90
52669;DHT22;59898;52.786;6.892;2022-09-09T01:28:51;15.30;99.90
52669;DHT22;59898;52.786;6.892;2022-09-09T01:32:45;15.30;99.90
52669;DHT22;59898;52.786;6.892;2022-09-09T01:36:18;15.20;99.90
52669;DHT22;59898;52.786;6.892;2022-09-09T01:39:43;15.20;99.90
52669;DHT22;59898;52.786;6.892;2022-09-09T01:43:05;15.30;99.90
52669;DHT22;59898;52.786;6.892;2022-09-09T01:46:28;15.30;99.90
52669;DHT22;59898;52.786;6.892;2022-09-09T01:49:49;15.30;99.90
52669;DHT22;59898;52.786;6.892;2022-09-09T01:53:11;15.30;99.90
52669;DHT22;59898;52.786;6.892;2022-09-09T02:00:11;15.40;99.90
52669;DHT22;59898;52.786;6.892;2022-09-09T02:03:33;15.40;99.90
52669;DHT22;59898;52.786;6.892;2022-09-09T02:06:56;15.40;99.90
52669;DHT22;59898;52.786;6.892;2022-09-09T02:13:44;15.40;99.90
52669;DHT22;59898;52.786;6.892;2022-09-09T02:17:10;15.40;99.90
52669;DHT22;59898;52.786;6.892;2022-09-09T02:20:31;15.40;99.90
52669;DHT22;59898;52.786;6.892;2022-09-09T02:23:54;15.30;99.90
52669;DHT22;59898;52.786;6.892;2022-09-09T02:27:18;15.30;99.90
52669;DHT22;59898;52.786;6.892;2022-09-09T02:30:40;15.30;99.90
52669;DHT22;59898;52.786;6.892;2022-09-09T02:34:03;15.30;99.90
52669;DHT22;59898;52.786;6.892;2022-09-09T02:37:31;15.30;99.90
52669;DHT22;59898;52.786;6.892;2022-09-09T02:40:53;15.20;99.90
52669;DHT22;59898;52.786;6.892;2022-09-09T02:44:16;15.10;99.90
52669;DHT22;59898;52.786;6.892;2022-09-09T02:51:35;15.00;99.90
52669;DHT22;59898;52.786;6.892;2022-09-09T02:55:06;15.00;99.90
52669;DHT22;59898;52.786;6.892;2022-09-09T02:58:28;15.10;99.90
52669;DHT22;59898;52.786;6.892;2022-09-09T03:01:49;15.00;99.90
52669;DHT22;59898;52.786;6.892;2022-09-09T03:05:10;15.00;99.90
52669;DHT22;59898;52.786;6.892;2022-09-09T03:08:30;14.80;99.90
52669;DHT22;59898;52.786;6.892;2022-09-09T03:11:52;15.00;99.90
52669;DHT22;59898;52.786;6.892;2022-09-09T03:15:13;15.00;99.90
52669;DHT22;59898;52.786;6.892;2022-09-09T03:18:34;15.00;99.90
52669;DHT22;59898;52.786;6.892;2022-09-09T03:21:54;14.90;99.90
52669;DHT22;59898;52.786;6.892;2022-09-09T03:25:15;14.90;99.90
52669;DHT22;59898;52.786;6.892;2022-09-09T03:28:36;14.90;99.90
52669;DHT22;59898;52.786;6.892;2022-09-09T03:31:56;14.90;99.90
52669;DHT22;59898;52.786;6.892;2022-09-09T03:35:17;14.80;99.90
52669;DHT22;59898;52.786;6.892;2022-09-09T03:38:38;14.90;99.90
52669;DHT22;59898;52.786;6.892;2022-09-09T03:41:59;14.80;99.90
52669;DHT22;59898;52.786;6.892;2022-09-09T03:45:19;14.80;99.90
52669;DHT22;59898;52.786;6.892;2022-09-09T03:48:40;14.70;99.90
52669;DHT22;59898;52.786;6.892;2022-09-09T03:52:01;14.70;99.90
52669;DHT22;59898;52.786;6.892;2022-09-09T03:55:22;14.70;99.90
52669;DHT22;59898;52.786;6.892;2022-09-09T03:58:42;14.70;99.90
52669;DHT22;59898;52.786;6.892;2022-09-09T04:02:04;14.70;99.90
52669;DHT22;59898;52.786;6.892;2022-09-09T04:05:24;14.60;99.90
52669;DHT22;59898;52.786;6.892;2022-09-09T04:08:45;14.60;99.90
52669;DHT22;59898;52.786;6.892;2022-09-09T04:12:08;14.60;99.90
52669;DHT22;59898;52.786;6.892;2022-09-09T04:15:33;14.60;99.90
52669;DHT22;59898;52.786;6.892;2022-09-09T04:18:55;14.60;99.90
52669;DHT22;59898;52.786;6.892;2022-09-09T04:22:16;14.60;99.90
52669;DHT22;59898;52.786;6.892;2022-09-09T04:25:37;14.60;99.90
52669;DHT22;59898;52.786;6.892;2022-09-09T04:28:58;14.70;99.90
52669;DHT22;59898;52.786;6.892;2022-09-09T04:32:19;14.70;99.90
52669;DHT22;59898;52.786;6.892;2022-09-09T04:35:47;14.70;99.90
52669;DHT22;59898;52.786;6.892;2022-09-09T04:39:08;14.70;99.90
52669;DHT22;59898;52.786;6.892;2022-09-09T04:42:29;14.70;99.90
52669;DHT22;59898;52.786;6.892;2022-09-09T04:45:51;14.70;99.90
52669;DHT22;59898;52.786;6.892;2022-09-09T04:49:12;14.70;99.90
52669;DHT22;59898;52.786;6.892;2022-09-09T04:52:34;14.70;99.90
52669;DHT22;59898;52.786;6.892;2022-09-09T04:56:06;14.70;99.90
52669;DHT22;59898;52.786;6.892;2022-09-09T04:59:27;14.60;99.90
52669;DHT22;59898;52.786;6.892;2022-09-09T05:02:47;14.60;99.90
52669;DHT22;59898;52.786;6.892;2022-09-09T05:06:10;14.60;99.90
52669;DHT22;59898;52.786;6.892;2022-09-09T05:09:31;14.60;99.90
52669;DHT22;59898;52.786;6.892;2022-09-09T05:12:53;14.60;99.90
52669;DHT22;59898;52.786;6.892;2022-09-09T05:16:14;14.60;99.90
52669;DHT22;59898;52.786;6.892;2022-09-09T05:19:35;14.60;99.90
52669;DHT22;59898;52.786;6.892;2022-09-09T05:22:56;14.50;99.90
52669;DHT22;59898;52.786;6.892;2022-09-09T05:26:19;14.50;99.90
52669;DHT22;59898;52.786;6.892;2022-09-09T05:29:40;14.50;99.90
52669;DHT22;59898;52.786;6.892;2022-09-09T05:33:03;14.50;99.90
52669;DHT22;59898;52.786;6.892;2022-09-09T05:36:24;14.50;99.90
52669;DHT22;59898;52.786;6.892;2022-09-09T05:39:45;14.50;99.90
52669;DHT22;59898;52.786;6.892;2022-09-09T05:43:05;14.50;99.90
52669;DHT22;59898;52.786;6.892;2022-09-09T05:46:26;14.50;99.90
52669;DHT22;59898;52.786;6.892;2022-09-09T05:49:47;14.40;99.90
52669;DHT22;59898;52.786;6.892;2022-09-09T05:53:08;14.40;99.90
52669;DHT22;59898;52.786;6.892;2022-09-09T05:56:29;14.50;99.90
52669;DHT22;59898;52.786;6.892;2022-09-09T05:59:50;14.50;99.90
52669;DHT22;59898;52.786;6.892;2022-09-09T06:03:11;14.60;99.90
52669;DHT22;59898;52.786;6.892;2022-09-09T06:06:37;14.60;99.90
52669;DHT22;59898;52.786;6.892;2022-09-09T06:09:59;14.60;99.90
52669;DHT22;59898;52.786;6.892;2022-09-09T06:13:20;14.60;99.90
52669;DHT22;59898;52.786;6.892;2022-09-09T06:16:41;14.70;99.90
52669;DHT22;59898;52.786;6.892;2022-09-09T06:20:05;14.70;99.90
52669;DHT22;59898;52.786;6.892;2022-09-09T06:23:26;14.70;99.90
52669;DHT22;59898;52.786;6.892;2022-09-09T06:26:47;14.70;99.90
52669;DHT22;59898;52.786;6.892;2022-09-09T06:30:08;14.70;99.90
52669;DHT22;59898;52.786;6.892;2022-09-09T06:33:40;14.70;99.90
52669;DHT22;59898;52.786;6.892;2022-09-09T06:37:01;14.70;99.90
52669;DHT22;59898;52.786;6.892;2022-09-09T06:40:22;14.70;99.90
52669;DHT22;59898;52.786;6.892;2022-09-09T06:43:42;14.80;99.90
52669;DHT22;59898;52.786;6.892;2022-09-09T06:47:03;14.80;99.90
52669;DHT22;59898;52.786;6.892;2022-09-09T06:50:24;14.80;99.90
52669;DHT22;59898;52.786;6.892;2022-09-09T06:53:46;14.80;99.90
52669;DHT22;59898;52.786;6.892;2022-09-09T06:57:07;14.80;99.90
52669;DHT22;59898;52.786;6.892;2022-09-09T07:00:27;14.90;99.90
52669;DHT22;59898;52.786;6.892;2022-09-09T07:03:52;14.90;99.90
52669;DHT22;59898;52.786;6.892;2022-09-09T07:07:13;14.90;99.90
52669;DHT22;59898;52.786;6.892;2022-09-09T07:10:35;14.90;99.90
52669;DHT22;59898;52.786;6.892;2022-09-09T07:14:00;15.00;99.90
52669;DHT22;59898;52.786;6.892;2022-09-09T07:17:21;15.10;99.90
52669;DHT22;59898;52.786;6.892;2022-09-09T07:20:42;15.30;99.90
52669;DHT22;59898;52.786;6.892;2022-09-09T07:24:02;15.40;99.90
52669;DHT22;59898;52.786;6.892;2022-09-09T07:27:25;15.40;99.90
52669;DHT22;59898;52.786;6.892;2022-09-09T07:31:13;15.50;99.90
52669;DHT22;59898;52.786;6.892;2022-09-09T07:34:36;15.60;99.90
52669;DHT22;59898;52.786;6.892;2022-09-09T07:37:57;15.70;99.90
52669;DHT22;59898;52.786;6.892;2022-09-09T07:41:22;15.90;99.90
52669;DHT22;59898;52.786;6.892;2022-09-09T07:44:43;16.10;99.90
52669;DHT22;59898;52.786;6.892;2022-09-09T07:48:04;16.20;99.90
52669;DHT22;59898;52.786;6.892;2022-09-09T07:51:28;16.30;99.90
52669;DHT22;59898;52.786;6.892;2022-09-09T07:54:49;16.80;99.90
52669;DHT22;59898;52.786;6.892;2022-09-09T07:58:09;16.70;99.90
52669;DHT22;59898;52.786;6.892;2022-09-09T08:01:33;16.90;99.90
52669;DHT22;59898;52.786;6.892;2022-09-09T08:04:54;17.00;99.90
52669;DHT22;59898;52.786;6.892;2022-09-09T08:08:15;17.10;99.90
52669;DHT22;59898;52.786;6.892;2022-09-09T08:11:39;17.30;99.90
52669;DHT22;59898;52.786;6.892;2022-09-09T08:15:00;17.40;99.90
52669;DHT22;59898;52.786;6.892;2022-09-09T08:18:21;17.60;99.90
52669;DHT22;59898;52.786;6.892;2022-09-09T08:21:43;17.70;99.90
52669;DHT22;59898;52.786;6.892;2022-09-09T08:25:04;17.70;99.90
52669;DHT22;59898;52.786;6.892;2022-09-09T08:28:26;17.70;99.90
52669;DHT22;59898;52.786;6.892;2022-09-09T08:31:51;17.90;99.90
52669;DHT22;59898;52.786;6.892;2022-09-09T08:35:14;18.00;99.90
52669;DHT22;59898;52.786;6.892;2022-09-09T08:38:35;18.10;99.90
52669;DHT22;59898;52.786;6.892;2022-09-09T08:45:37;18.10;99.90
52669;DHT22;59898;52.786;6.892;2022-09-09T08:53:16;18.10;99.90
52669;DHT22;59898;52.786;6.892;2022-09-09T08:56:38;18.00;99.90
52669;DHT22;59898;52.786;6.892;2022-09-09T08:59:59;17.90;99.90
52669;DHT22;59898;52.786;6.892;2022-09-09T09:10:48;17.80;99.90
52669;DHT22;59898;52.786;6.892;2022-09-09T09:14:14;17.80;99.90
52669;DHT22;59898;52.786;6.892;2022-09-09T09:17:38;17.90;99.90
52669;DHT22;59898;52.786;6.892;2022-09-09T09:24:24;17.90;99.90
52669;DHT22;59898;52.786;6.892;2022-09-09T09:27:51;18.00;99.90
52669;DHT22;59898;52.786;6.892;2022-09-09T09:31:13;18.30;99.90
52669;DHT22;59898;52.786;6.892;2022-09-09T09:34:34;18.40;99.90
52669;DHT22;59898;52.786;6.892;2022-09-09T09:37:55;18.30;99.90
52669;DHT22;59898;52.786;6.892;2022-09-09T09:41:15;18.30;99.90
52669;DHT22;59898;52.786;6.892;2022-09-09T09:44:38;18.30;99.90
52669;DHT22;59898;52.786;6.892;2022-09-09T09:48:05;18.40;99.90
52669;DHT22;59898;52.786;6.892;2022-09-09T09:51:26;18.70;99.90
52669;DHT22;59898;52.786;6.892;2022-09-09T09:54:48;19.00;99.90
52669;DHT22;59898;52.786;6.892;2022-09-09T09:58:15;19.50;99.90
52669;DHT22;59898;52.786;6.892;2022-09-09T10:01:36;19.70;99.90
52669;DHT22;59898;52.786;6.892;2022-09-09T10:05:19;19.80;99.90
52669;DHT22;59898;52.786;6.892;2022-09-09T10:08:46;19.60;99.90
52669;DHT22;59898;52.786;6.892;2022-09-09T10:19:15;19.70;99.90
52669;DHT22;59898;52.786;6.892;2022-09-09T10:22:39;19.80;99.90
52669;DHT22;59898;52.786;6.892;2022-09-09T10:26:11;19.80;99.90
52669;DHT22;59898;52.786;6.892;2022-09-09T10:30:20;19.70;99.90
52669;DHT22;59898;52.786;6.892;2022-09-09T10:38:16;19.80;99.90
52669;DHT22;59898;52.786;6.892;2022-09-09T10:42:14;19.80;99.90
52669;DHT22;59898;52.786;6.892;2022-09-09T10:56:57;20.60;99.90
52669;DHT22;59898;52.786;6.892;2022-09-09T11:00:40;20.70;99.90
52669;DHT22;59898;52.786;6.892;2022-09-09T11:04:15;20.60;99.90
52669;DHT22;59898;52.786;6.892;2022-09-09T11:07:58;20.60;99.90
52669;DHT22;59898;52.786;6.892;2022-09-09T11:11:26;20.60;99.90
52669;DHT22;59898;52.786;6.892;2022-09-09T11:15:01;20.70;99.90
52669;DHT22;59898;52.786;6.892;2022-09-09T11:18:24;20.70;99.90
52669;DHT22;59898;52.786;6.892;2022-09-09T11:21:47;20.60;99.90
52669;DHT22;59898;52.786;6.892;2022-09-09T11:25:18;20.70;99.90
52669;DHT22;59898;52.786;6.892;2022-09-09T11:36:43;20.90;99.90
52669;DHT22;59898;52.786;6.892;2022-09-09T11:43:44;21.40;99.90
52669;DHT22;59898;52.786;6.892;2022-09-09T11:47:26;21.40;99.90
52669;DHT22;59898;52.786;6.892;2022-09-09T11:51:02;21.30;99.90
52669;DHT22;59898;52.786;6.892;2022-09-09T11:54:33;21.30;99.90
52669;DHT22;59898;52.786;6.892;2022-09-09T11:58:13;21.00;99.90
52669;DHT22;59898;52.786;6.892;2022-09-09T12:01:42;21.00;99.90
52669;DHT22;59898;52.786;6.892;2022-09-09T12:05:07;21.00;99.90
52669;DHT22;59898;52.786;6.892;2022-09-09T12:08:30;21.10;99.90
52669;DHT22;59898;52.786;6.892;2022-09-09T12:11:51;21.10;99.90
52669;DHT22;59898;52.786;6.892;2022-09-09T12:18:37;21.00;99.90
52669;DHT22;59898;52.786;6.892;2022-09-09T12:29:46;21.50;99.90
52669;DHT22;59898;52.786;6.892;2022-09-09T12:33:12;21.30;99.90
52669;DHT22;59898;52.786;6.892;2022-09-09T12:36:33;20.90;99.90
52669;DHT22;59898;52.786;6.892;2022-09-09T12:43:18;20.60;99.90
52669;DHT22;59898;52.786;6.892;2022-09-09T12:46:41;20.60;99.90
52669;DHT22;59898;52.786;6.892;2022-09-09T12:50:03;20.50;99.90
52669;DHT22;59898;52.786;6.892;2022-09-09T12:56:48;20.70;99.90
52669;DHT22;59898;52.786;6.892;2022-09-09T13:00:18;20.70;99.90
52669;DHT22;59898;52.786;6.892;2022-09-09T13:03:43;20.60;99.90
52669;DHT22;59898;52.786;6.892;2022-09-09T13:07:07;20.70;99.90
52669;DHT22;59898;52.786;6.892;2022-09-09T13:10:35;20.70;99.90
52669;DHT22;59898;52.786;6.892;2022-09-09T13:13:59;20.80;99.90
52669;DHT22;59898;52.786;6.892;2022-09-09T13:17:27;20.60;99.90
52669;DHT22;59898;52.786;6.892;2022-09-09T13:20:50;20.50;99.90
52669;DHT22;59898;52.786;6.892;2022-09-09T13:24:31;20.30;99.90
52669;DHT22;59898;52.786;6.892;2022-09-09T13:27:58;19.70;99.90
52669;DHT22;59898;52.786;6.892;2022-09-09T13:31:34;19.50;99.90
52669;DHT22;59898;52.786;6.892;2022-09-09T13:35:00;19.40;99.90
52669;DHT22;59898;52.786;6.892;2022-09-09T13:38:24;19.30;99.90
52669;DHT22;59898;52.786;6.892;2022-09-09T13:41:46;19.30;99.90
52669;DHT22;59898;52.786;6.892;2022-09-09T13:45:18;19.40;99.90
52669;DHT22;59898;52.786;6.892;2022-09-09T13:48:40;19.50;99.90
52669;DHT22;59898;52.786;6.892;2022-09-09T13:52:10;19.70;99.90
52669;DHT22;59898;52.786;6.892;2022-09-09T13:55:32;19.70;99.90
52669;DHT22;59898;52.786;6.892;2022-09-09T13:58:53;19.80;99.90
52669;DHT22;59898;52.786;6.892;2022-09-09T14:02:15;19.80;99.90
52669;DHT22;59898;52.786;6.892;2022-09-09T14:05:37;19.80;99.90
52669;DHT22;59898;52.786;6.892;2022-09-09T14:08:58;19.80;99.90
52669;DHT22;59898;52.786;6.892;2022-09-09T14:12:19;19.80;99.90
52669;DHT22;59898;52.786;6.892;2022-09-09T14:15:40;19.70;99.90
52669;DHT22;59898;52.786;6.892;2022-09-09T14:19:01;19.60;99.90
52669;DHT22;59898;52.786;6.892;2022-09-09T14:22:22;19.30;99.90
52669;DHT22;59898;52.786;6.892;2022-09-09T14:25:43;18.90;99.90
52669;DHT22;59898;52.786;6.892;2022-09-09T14:29:04;18.60;99.90
52669;DHT22;59898;52.786;6.892;2022-09-09T14:32:25;18.30;99.90
52669;DHT22;59898;52.786;6.892;2022-09-09T14:35:45;18.00;99.90
52669;DHT22;59898;52.786;6.892;2022-09-09T14:39:06;18.00;99.90
52669;DHT22;59898;52.786;6.892;2022-09-09T14:42:27;18.00;99.90
52669;DHT22;59898;52.786;6.892;2022-09-09T14:45:49;17.80;99.90
52669;DHT22;59898;52.786;6.892;2022-09-09T14:49:11;17.80;99.90
52669;DHT22;59898;52.786;6.892;2022-09-09T14:52:33;17.80;99.90
52669;DHT22;59898;52.786;6.892;2022-09-09T14:56:06;17.90;99.90
52669;DHT22;59898;52.786;6.892;2022-09-09T14:59:27;18.10;99.90
52669;DHT22;59898;52.786;6.892;2022-09-09T15:02:48;18.30;99.90
52669;DHT22;59898;52.786;6.892;2022-09-09T15:06:13;18.40;99.90
52669;DHT22;59898;52.786;6.892;2022-09-09T15:09:34;18.50;99.90
52669;DHT22;59898;52.786;6.892;2022-09-09T15:12:55;18.50;99.90
52669;DHT22;59898;52.786;6.892;2022-09-09T15:16:18;18.40;99.90
52669;DHT22;59898;52.786;6.892;2022-09-09T15:19:39;18.50;99.90
52669;DHT22;59898;52.786;6.892;2022-09-09T15:22:59;18.60;99.90
52669;DHT22;59898;52.786;6.892;2022-09-09T15:26:20;18.60;99.90
52669;DHT22;59898;52.786;6.892;2022-09-09T15:29:41;18.50;99.90
52669;DHT22;59898;52.786;6.892;2022-09-09T15:33:07;18.50;99.90
52669;DHT22;59898;52.786;6.892;2022-09-09T15:36:29;18.50;99.90
52669;DHT22;59898;52.786;6.892;2022-09-09T15:39:50;18.50;99.90
52669;DHT22;59898;52.786;6.892;2022-09-09T15:43:10;18.50;99.90
52669;DHT22;59898;52.786;6.892;2022-09-09T15:46:33;18.50;99.90
52669;DHT22;59898;52.786;6.892;2022-09-09T15:49:57;18.60;99.90
52669;DHT22;59898;52.786;6.892;2022-09-09T15:53:19;18.60;99.90
52669;DHT22;59898;52.786;6.892;2022-09-09T15:56:40;18.60;99.90
52669;DHT22;59898;52.786;6.892;2022-09-09T16:00:05;18.60;99.90
52669;DHT22;59898;52.786;6.892;2022-09-09T16:03:27;18.60;99.90
52669;DHT22;59898;52.786;6.892;2022-09-09T16:06:47;18.60;99.90
52669;DHT22;59898;52.786;6.892;2022-09-09T16:10:09;18.60;99.90
52669;DHT22;59898;52.786;6.892;2022-09-09T16:13:33;18.60;99.90
52669;DHT22;59898;52.786;6.892;2022-09-09T16:16:53;18.70;99.90
52669;DHT22;59898;52.786;6.892;2022-09-09T16:20:14;18.70;99.90
52669;DHT22;59898;52.786;6.892;2022-09-09T16:23:35;18.70;99.90
52669;DHT22;59898;52.786;6.892;2022-09-09T16:26:56;18.70;99.90
52669;DHT22;59898;52.786;6.892;2022-09-09T16:30:17;18.70;99.90
52669;DHT22;59898;52.786;6.892;2022-09-09T16:33:37;18.60;99.90
52669;DHT22;59898;52.786;6.892;2022-09-09T16:36:58;18.60;99.90
52669;DHT22;59898;52.786;6.892;2022-09-09T16:40:18;18.50;99.90
52669;DHT22;59898;52.786;6.892;2022-09-09T16:43:40;18.50;99.90
52669;DHT22;59898;52.786;6.892;2022-09-09T16:47:01;18.60;99.90
52669;DHT22;59898;52.786;6.892;2022-09-09T16:50:22;18.60;99.90
52669;DHT22;59898;52.786;6.892;2022-09-09T16:53:43;18.60;99.90
52669;DHT22;59898;52.786;6.892;2022-09-09T16:57:04;18.60;99.90
52669;DHT22;59898;52.786;6.892;2022-09-09T17:00:24;18.60;99.90
52669;DHT22;59898;52.786;6.892;2022-09-09T17:03:47;18.50;99.90
52669;DHT22;59898;52.786;6.892;2022-09-09T17:07:08;18.50;99.90
52669;DHT22;59898;52.786;6.892;2022-09-09T17:10:28;18.50;99.90
52669;DHT22;59898;52.786;6.892;2022-09-09T17:13:50;18.50;99.90
52669;DHT22;59898;52.786;6.892;2022-09-09T17:17:11;18.50;99.90
52669;DHT22;59898;52.786;6.892;2022-09-09T17:20:35;18.40;99.90
52669;DHT22;59898;52.786;6.892;2022-09-09T17:23:57;18.40;99.90
52669;DHT22;59898;52.786;6.892;2022-09-09T17:27:18;18.40;99.90
52669;DHT22;59898;52.786;6.892;2022-09-09T17:30:38;18.40;99.90
52669;DHT22;59898;52.786;6.892;2022-09-09T17:33:59;18.40;99.90
52669;DHT22;59898;52.786;6.892;2022-09-09T17:37:20;18.40;99.90
52669;DHT22;59898;52.786;6.892;2022-09-09T17:40:41;18.40;99.90
52669;DHT22;59898;52.786;6.892;2022-09-09T17:44:03;18.40;99.90
52669;DHT22;59898;52.786;6.892;2022-09-09T17:47:24;18.40;99.90
52669;DHT22;59898;52.786;6.892;2022-09-09T17:50:45;18.40;99.90
52669;DHT22;59898;52.786;6.892;2022-09-09T17:54:13;18.40;99.90
52669;DHT22;59898;52.786;6.892;2022-09-09T17:57:34;18.40;99.90
52669;DHT22;59898;52.786;6.892;2022-09-09T18:00:55;18.40;99.90
52669;DHT22;59898;52.786;6.892;2022-09-09T18:04:17;18.40;99.90
52669;DHT22;59898;52.786;6.892;2022-09-09T18:07:38;18.40;99.90
52669;DHT22;59898;52.786;6.892;2022-09-09T18:10:58;18.40;99.90
52669;DHT22;59898;52.786;6.892;2022-09-09T18:14:23;18.30;99.90
52669;DHT22;59898;52.786;6.892;2022-09-09T18:17:44;18.30;99.90
52669;DHT22;59898;52.786;6.892;2022-09-09T18:21:07;18.30;99.90
52669;DHT22;59898;52.786;6.892;2022-09-09T18:24:28;18.30;99.90
52669;DHT22;59898;52.786;6.892;2022-09-09T18:27:49;18.30;99.90
52669;DHT22;59898;52.786;6.892;2022-09-09T18:31:13;18.30;99.90
52669;DHT22;59898;52.786;6.892;2022-09-09T18:34:34;18.20;99.90
52669;DHT22;59898;52.786;6.892;2022-09-09T18:37:55;18.20;99.90
52669;DHT22;59898;52.786;6.892;2022-09-09T18:41:22;18.10;99.90
52669;DHT22;59898;52.786;6.892;2022-09-09T18:44:43;18.10;99.90
52669;DHT22;59898;52.786;6.892;2022-09-09T18:48:04;18.00;99.90
52669;DHT22;59898;52.786;6.892;2022-09-09T18:51:27;18.00;99.90
52669;DHT22;59898;52.786;6.892;2022-09-09T18:54:49;17.90;99.90
52669;DHT22;59898;52.786;6.892;2022-09-09T18:58:10;17.90;99.90
52669;DHT22;59898;52.786;6.892;2022-09-09T19:01:33;17.80;99.90
52669;DHT22;59898;52.786;6.892;2022-09-09T19:04:58;17.80;99.90
52669;DHT22;59898;52.786;6.892;2022-09-09T19:08:19;17.70;99.90
52669;DHT22;59898;52.786;6.892;2022-09-09T19:11:40;17.80;99.90
52669;DHT22;59898;52.786;6.892;2022-09-09T19:15:01;17.70;99.90
52669;DHT22;59898;52.786;6.892;2022-09-09T19:18:22;17.70;99.90
52669;DHT22;59898;52.786;6.892;2022-09-09T19:21:43;17.60;99.90
52669;DHT22;59898;52.786;6.892;2022-09-09T19:25:04;17.60;99.90
52669;DHT22;59898;52.786;6.892;2022-09-09T19:28:26;17.60;99.90
52669;DHT22;59898;52.786;6.892;2022-09-09T19:31:48;17.50;99.90
52669;DHT22;59898;52.786;6.892;2022-09-09T19:35:09;17.50;99.90
52669;DHT22;59898;52.786;6.892;2022-09-09T19:38:31;17.40;99.90
52669;DHT22;59898;52.786;6.892;2022-09-09T19:41:52;17.40;99.90
52669;DHT22;59898;52.786;6.892;2022-09-09T19:45:12;17.40;99.90
52669;DHT22;59898;52.786;6.892;2022-09-09T19:48:34;17.30;99.90
52669;DHT22;59898;52.786;6.892;2022-09-09T19:51:56;17.30;99.90
52669;DHT22;59898;52.786;6.892;2022-09-09T19:55:17;17.20;99.90
52669;DHT22;59898;52.786;6.892;2022-09-09T19:58:39;17.20;99.90
52669;DHT22;59898;52.786;6.892;2022-09-09T20:02:00;17.20;99.90
52669;DHT22;59898;52.786;6.892;2022-09-09T20:05:21;17.10;99.90
52669;DHT22;59898;52.786;6.892;2022-09-09T20:08:45;17.00;99.90
52669;DHT22;59898;52.786;6.892;2022-09-09T20:12:07;17.00;99.90
52669;DHT22;59898;52.786;6.892;2022-09-09T20:15:28;17.00;99.90
52669;DHT22;59898;52.786;6.892;2022-09-09T20:18:50;16.90;99.90
52669;DHT22;59898;52.786;6.892;2022-09-09T20:22:12;16.90;99.90
52669;DHT22;59898;52.786;6.892;2022-09-09T20:25:35;16.80;99.90
52669;DHT22;59898;52.786;6.892;2022-09-09T20:28:56;16.80;99.90
52669;DHT22;59898;52.786;6.892;2022-09-09T20:32:17;16.70;99.90
52669;DHT22;59898;52.786;6.892;2022-09-09T20:35:38;16.70;99.90
52669;DHT22;59898;52.786;6.892;2022-09-09T20:39:06;16.60;99.90
52669;DHT22;59898;52.786;6.892;2022-09-09T20:42:27;16.60;99.90
52669;DHT22;59898;52.786;6.892;2022-09-09T20:45:48;16.50;99.90
52669;DHT22;59898;52.786;6.892;2022-09-09T20:49:10;16.50;99.90
52669;DHT22;59898;52.786;6.892;2022-09-09T20:52:31;16.40;99.90
52669;DHT22;59898;52.786;6.892;2022-09-09T20:55:52;16.30;99.90
52669;DHT22;59898;52.786;6.892;2022-09-09T20:59:23;16.30;99.90
52669;DHT22;59898;52.786;6.892;2022-09-09T21:02:44;16.30;99.90
52669;DHT22;59898;52.786;6.892;2022-09-09T21:06:06;16.30;99.90
52669;DHT22;59898;52.786;6.892;2022-09-09T21:09:27;16.20;99.90
52669;DHT22;59898;52.786;6.892;2022-09-09T21:12:47;16.20;99.90
52669;DHT22;59898;52.786;6.892;2022-09-09T21:16:12;16.20;99.90
52669;DHT22;59898;52.786;6.892;2022-09-09T21:19:33;16.20;99.90
52669;DHT22;59898;52.786;6.892;2022-09-09T21:22:55;16.10;99.90
52669;DHT22;59898;52.786;6.892;2022-09-09T21:26:15;16.10;99.90
52669;DHT22;59898;52.786;6.892;2022-09-09T21:29:39;16.10;99.90
52669;DHT22;59898;52.786;6.892;2022-09-09T21:33:00;16.00;99.90
52669;DHT22;59898;52.786;6.892;2022-09-09T21:36:21;16.00;99.90
52669;DHT22;59898;52.786;6.892;2022-09-09T21:39:42;16.00;99.90
52669;DHT22;59898;52.786;6.892;2022-09-09T21:43:07;16.00;99.90
52669;DHT22;59898;52.786;6.892;2022-09-09T21:46:31;16.00;99.90
52669;DHT22;59898;52.786;6.892;2022-09-09T21:49:51;15.90;99.90
52669;DHT22;59898;52.786;6.892;2022-09-09T21:53:13;16.00;99.90
52669;DHT22;59898;52.786;6.892;2022-09-09T21:56:35;16.00;99.90
52669;DHT22;59898;52.786;6.892;2022-09-09T21:59:56;15.90;99.90
52669;DHT22;59898;52.786;6.892;2022-09-09T22:03:17;15.90;99.90
52669;DHT22;59898;52.786;6.892;2022-09-09T22:06:39;15.90;99.90
52669;DHT22;59898;52.786;6.892;2022-09-09T22:09:59;15.90;99.90
52669;DHT22;59898;52.786;6.892;2022-09-09T22:13:20;15.80;99.90
52669;DHT22;59898;52.786;6.892;2022-09-09T22:16:41;15.80;99.90
52669;DHT22;59898;52.786;6.892;2022-09-09T22:20:02;15.80;99.90
52669;DHT22;59898;52.786;6.892;2022-09-09T22:23:23;15.80;99.90
52669;DHT22;59898;52.786;6.892;2022-09-09T22:26:44;15.70;99.90
52669;DHT22;59898;52.786;6.892;2022-09-09T22:30:05;15.70;99.90
52669;DHT22;59898;52.786;6.892;2022-09-09T22:33:26;15.70;99.90
52669;DHT22;59898;52.786;6.892;2022-09-09T22:36:47;15.70;99.90
52669;DHT22;59898;52.786;6.892;2022-09-09T22:40:10;15.70;99.90
52669;DHT22;59898;52.786;6.892;2022-09-09T22:43:33;15.70;99.90
52669;DHT22;59898;52.786;6.892;2022-09-09T22:46:54;15.70;99.90
52669;DHT22;59898;52.786;6.892;2022-09-09T22:50:15;15.60;99.90
52669;DHT22;59898;52.786;6.892;2022-09-09T22:53:37;15.60;99.90
52669;DHT22;59898;52.786;6.892;2022-09-09T22:56:58;15.60;99.90
52669;DHT22;59898;52.786;6.892;2022-09-09T23:00:19;15.60;99.90
52669;DHT22;59898;52.786;6.892;2022-09-09T23:03:40;15.60;99.90
52669;DHT22;59898;52.786;6.892;2022-09-09T23:07:01;15.50;99.90
52669;DHT22;59898;52.786;6.892;2022-09-09T23:10:23;15.50;99.90